Time;durP1;ratioP1;P1;durP2;ratioP2;P2;SDS_P1;SDS_P2;PMS_P1;PMS_P2;Temp;Humidity;BMP_temperature;BMP_pressure;BME280_temperature;BME280_humidity;BME280_pressure;Samples;Min_cycle;Max_cycle;Signal;HPM_P1;HPM_P2
2021/09/15 00:01:27;;;;;;;3.88;3.17;;;22.70;66.90;;;;;;5022195;28;20499;-79
2021/09/15 00:03:53;;;;;;;4.35;3.15;;;22.70;67.00;;;;;;5022261;28;20037;-79
2021/09/15 00:06:19;;;;;;;4.20;3.17;;;22.70;66.90;;;;;;5022697;28;20049;-80
2021/09/15 00:08:45;;;;;;;4.07;3.17;;;22.60;66.90;;;;;;5022485;28;20120;-80
2021/09/15 00:11:12;;;;;;;3.80;3.17;;;22.70;67.00;;;;;;5038973;28;20061;-82
2021/09/15 00:13:39;;;;;;;3.72;2.90;;;22.70;67.00;;;;;;5023018;28;20118;-80
2021/09/15 00:16:05;;;;;;;4.07;2.92;;;22.60;66.90;;;;;;5038838;28;20068;-80
2021/09/15 00:18:31;;;;;;;4.15;3.15;;;22.60;66.90;;;;;;5021638;28;20555;-80
2021/09/15 00:20:57;;;;;;;4.30;3.40;;;22.60;67.00;;;;;;5022874;28;20056;-79
2021/09/15 00:23:23;;;;;;;4.20;3.03;;;22.60;67.00;;;;;;5021900;28;20041;-79
2021/09/15 00:25:48;;;;;;;5.00;3.40;;;22.60;67.30;;;;;;5056059;28;20032;-80
2021/09/15 00:28:14;;;;;;;3.58;2.92;;;22.60;67.00;;;;;;5005813;28;20508;-80
2021/09/15 00:30:40;;;;;;;3.60;2.70;;;22.60;67.00;;;;;;5021506;28;20021;-79
2021/09/15 00:33:06;;;;;;;4.05;3.03;;;22.60;67.00;;;;;;5021856;28;20036;-79
2021/09/15 00:35:32;;;;;;;4.22;2.92;;;22.60;67.00;;;;;;5056149;28;20025;-79
2021/09/15 00:37:58;;;;;;;3.55;2.75;;;22.60;67.00;;;;;;5021970;28;20086;-80
2021/09/15 00:40:24;;;;;;;3.75;2.80;;;22.60;67.00;;;;;;5039287;28;20342;-80
2021/09/15 00:42:50;;;;;;;3.25;2.75;;;22.60;67.00;;;;;;5022150;28;20091;-79
2021/09/15 00:45:17;;;;;;;4.55;3.03;;;22.50;66.90;;;;;;5038654;28;20381;-80
2021/09/15 00:47:43;;;;;;;3.60;2.92;;;22.50;67.00;;;;;;5037563;28;20465;-80
2021/09/15 00:50:13;;;;;;;3.53;2.72;;;22.50;67.00;;;;;;5038960;28;20033;-80
2021/09/15 00:52:39;;;;;;;3.78;3.05;;;22.50;67.00;;;;;;5037650;28;20033;-79
2021/09/15 00:55:07;;;;;;;3.50;2.75;;;22.50;67.00;;;;;;5038371;28;20021;-80
2021/09/15 00:57:36;;;;;;;3.67;3.00;;;22.50;67.00;;;;;;5022255;28;20488;-80
2021/09/15 01:00:04;;;;;;;3.78;2.95;;;22.50;67.00;;;;;;5022114;28;20029;-81
2021/09/15 01:02:32;;;;;;;3.35;2.50;;;22.50;67.00;;;;;;5004987;28;20029;-81
2021/09/15 01:05:03;;;;;;;3.85;2.88;;;22.50;67.00;;;;;;5038281;28;20128;-80
2021/09/15 01:07:32;;;;;;;4.57;3.17;;;22.50;67.00;;;;;;5005357;28;20033;-80
2021/09/15 01:09:59;;;;;;;2.97;2.17;;;22.50;67.00;;;;;;5021314;28;20044;-80
2021/09/15 01:12:31;;;;;;;3.38;2.60;;;22.50;67.00;;;;;;5022017;28;20037;-80
2021/09/15 01:15:17;;;;;;;3.30;2.67;;;22.40;66.90;;;;;;5040744;28;20041;-80
2021/09/15 01:18:19;;;;;;;3.75;2.70;;;22.40;66.90;;;;;;5029696;28;20041;-80
2021/09/15 01:21:08;;;;;;;3.13;2.50;;;22.40;66.90;;;;;;5040830;28;20040;-80
2021/09/15 01:24:03;;;;;;;3.40;2.45;;;22.40;67.00;;;;;;5018431;28;20097;-80
2021/09/15 01:26:52;;;;;;;3.17;2.45;;;22.40;67.00;;;;;;5032916;28;20041;-79
2021/09/15 01:29:56;;;;;;;3.67;2.97;;;22.40;67.00;;;;;;5027293;28;20091;-81
2021/09/15 01:32:28;;;;;;;4.05;2.78;;;22.40;67.00;;;;;;5021858;28;20507;-80
2021/09/15 01:34:55;;;;;;;4.20;2.78;;;22.30;67.00;;;;;;5037546;28;20515;-80
2021/09/15 01:37:25;;;;;;;3.63;2.75;;;22.40;67.10;;;;;;5021868;28;20522;-80
2021/09/15 01:39:55;;;;;;;3.10;2.47;;;22.40;67.20;;;;;;5037371;28;20021;-81
2021/09/15 01:42:22;;;;;;;3.28;2.70;;;22.30;67.10;;;;;;5021288;28;20043;-80
2021/09/15 01:44:49;;;;;;;3.40;2.70;;;22.30;67.10;;;;;;5021307;28;20052;-80
2021/09/15 01:47:18;;;;;;;3.67;2.78;;;22.30;67.10;;;;;;5020837;28;20033;-80
2021/09/15 01:49:45;;;;;;;3.22;2.60;;;22.30;67.10;;;;;;5020276;28;20040;-81
2021/09/15 01:52:13;;;;;;;3.00;2.35;;;22.30;67.10;;;;;;5037220;28;20041;-80
2021/09/15 01:54:39;;;;;;;3.30;2.60;;;22.30;67.20;;;;;;5037401;28;20461;-80
2021/09/15 01:57:06;;;;;;;3.97;2.80;;;22.30;67.10;;;;;;5020663;28;20029;-80
2021/09/15 01:59:50;;;;;;;;;;;22.30;67.20;;;;;;5055516;28;20086;-80
2021/09/15 02:02:48;;;;;;;3.40;2.42;;;22.30;67.00;;;;;;5040902;28;20007;-80
2021/09/15 02:05:26;;;;;;;3.30;2.50;;;22.30;67.00;;;;;;5038287;28;20045;-80
2021/09/15 02:08:06;;;;;;;2.90;2.38;;;22.20;67.10;;;;;;5037279;28;20036;-80
2021/09/15 02:10:53;;;;;;;3.80;2.47;;;22.20;67.20;;;;;;5023498;28;20032;-79
2021/09/15 02:13:19;;;;;;;4.07;2.88;;;22.20;67.20;;;;;;5019888;28;20029;-80
2021/09/15 02:15:45;;;;;;;3.30;2.65;;;22.20;67.30;;;;;;5054306;28;20083;-80
2021/09/15 02:18:11;;;;;;;4.40;2.90;;;22.20;67.30;;;;;;5036273;28;20060;-79
2021/09/15 02:20:55;;;;;;;3.13;2.45;;;22.20;67.30;;;;;;5039819;28;20076;-80
2021/09/15 02:23:41;;;;;;;2.75;2.45;;;22.10;67.20;;;;;;5038958;28;20127;-80
2021/09/15 02:26:30;;;;;;;3.22;2.63;;;22.20;67.30;;;;;;5032038;28;20044;-79
2021/09/15 02:28:58;;;;;;;3.58;2.67;;;22.20;67.30;;;;;;5020795;28;20124;-80
2021/09/15 02:32:02;;;;;;;3.40;2.70;;;22.10;67.30;;;;;;4972970;28;20038;-80
2021/09/15 02:34:48;;;;;;;3.25;2.55;;;22.10;67.30;;;;;;4972517;28;20592;-80
2021/09/15 02:37:32;;;;;;;3.50;2.67;;;22.10;67.30;;;;;;5028192;28;20128;-78
2021/09/15 02:40:08;;;;;;;3.17;2.60;;;22.10;67.30;;;;;;5036301;28;20032;-80
2021/09/15 02:42:49;;;;;;;3.53;2.72;;;22.00;67.30;;;;;;5007845;28;20492;-80
2021/09/15 02:45:18;;;;;;;4.15;2.70;;;22.10;67.30;;;;;;5019823;28;20036;-80
2021/09/15 02:47:53;;;;;;;3.47;2.72;;;22.00;67.30;;;;;;5036560;28;20036;-80
2021/09/15 02:50:39;;;;;;;3.72;2.75;;;22.10;67.40;;;;;;5038514;28;20492;-80
2021/09/15 02:53:23;;;;;;;3.55;2.92;;;22.10;67.40;;;;;;5035808;28;20040;-80
2021/09/15 02:56:07;;;;;;;4.10;2.97;;;22.10;67.40;;;;;;5022598;28;20040;-79
2021/09/15 02:58:54;;;;;;;3.38;2.72;;;22.00;67.30;;;;;;5025908;28;20040;-80
2021/09/15 03:01:43;;;;;;;3.88;2.95;;;22.00;67.40;;;;;;5030834;28;20037;-80
2021/09/15 03:04:32;;;;;;;3.67;2.80;;;22.00;67.40;;;;;;5028086;28;20072;-80
2021/09/15 03:07:14;;;;;;;3.83;2.90;;;22.00;67.40;;;;;;5002041;28;20037;-80
2021/09/15 03:09:41;;;;;;;3.50;2.88;;;21.90;67.40;;;;;;4999306;28;20128;-80
2021/09/15 03:12:09;;;;;;;4.45;3.00;;;21.90;67.50;;;;;;5015712;28;20033;-80
2021/09/15 03:14:35;;;;;;;3.72;2.90;;;21.90;67.50;;;;;;4999381;28;20030;-82
2021/09/15 03:17:01;;;;;;;3.67;2.80;;;21.90;67.50;;;;;;5015916;28;20030;-80
2021/09/15 03:19:26;;;;;;;3.60;2.90;;;21.90;67.50;;;;;;5015433;28;20120;-80
2021/09/15 03:21:52;;;;;;;3.33;2.67;;;22.00;67.60;;;;;;5015949;28;20036;-80
2021/09/15 03:24:18;;;;;;;3.30;2.58;;;21.90;67.50;;;;;;5016428;28;20038;-81
2021/09/15 03:26:50;;;;;;;3.65;2.78;;;21.90;67.50;;;;;;5015880;28;20080;-81
2021/09/15 03:29:16;;;;;;;4.35;2.70;;;21.90;67.50;;;;;;5015587;28;20037;-82
2021/09/15 03:31:42;;;;;;;3.28;2.65;;;21.90;67.60;;;;;;5015848;28;20105;-82
2021/09/15 03:34:08;;;;;;;3.88;2.70;;;21.90;67.60;;;;;;5015454;28;20061;-81
2021/09/15 03:36:34;;;;;;;3.90;2.70;;;21.90;67.60;;;;;;5015881;28;20549;-81
2021/09/15 03:39:01;;;;;;;4.00;2.90;;;21.90;67.60;;;;;;4998729;28;20084;-81
2021/09/15 03:41:27;;;;;;;3.72;3.03;;;21.90;67.60;;;;;;5016000;28;20056;-81
2021/09/15 03:43:54;;;;;;;4.70;2.95;;;21.90;67.60;;;;;;5015292;28;20375;-81
2021/09/15 03:46:20;;;;;;;3.65;2.90;;;21.90;67.70;;;;;;5015398;28;20036;-81
2021/09/15 03:48:46;;;;;;;3.53;2.70;;;21.90;67.70;;;;;;5016052;28;20034;-81
2021/09/15 03:51:12;;;;;;;3.83;2.80;;;21.90;67.70;;;;;;5015538;28;20033;-81
2021/09/15 03:53:38;;;;;;;3.42;2.60;;;21.90;67.70;;;;;;4999007;28;20042;-82
2021/09/15 03:56:05;;;;;;;4.05;3.10;;;21.90;67.70;;;;;;4999035;28;20032;-81
2021/09/15 03:58:31;;;;;;;3.58;2.80;;;21.90;67.70;;;;;;5015475;28;20033;-82
2021/09/15 04:00:56;;;;;;;3.63;2.88;;;21.90;67.70;;;;;;5015230;28;20491;-81
2021/09/15 04:03:22;;;;;;;4.45;3.03;;;21.80;67.70;;;;;;5015305;28;20040;-81
2021/09/15 04:05:48;;;;;;;3.33;2.60;;;21.90;67.80;;;;;;5023485;28;20131;-81
2021/09/15 04:08:17;;;;;;;4.03;2.80;;;21.80;67.70;;;;;;5019223;28;20071;-81
2021/09/15 04:10:43;;;;;;;3.95;2.88;;;21.80;67.70;;;;;;5018515;28;20115;-81
2021/09/15 04:13:10;;;;;;;3.88;2.97;;;21.80;67.70;;;;;;5035762;28;20136;-81
2021/09/15 04:15:37;;;;;;;3.85;2.90;;;21.80;67.80;;;;;;5019423;28;20466;-81
2021/09/15 04:18:03;;;;;;;3.28;2.55;;;21.80;67.80;;;;;;5003103;28;20342;-82
2021/09/15 04:20:29;;;;;;;3.33;2.70;;;21.80;67.80;;;;;;5002552;28;20028;-82
2021/09/15 04:22:55;;;;;;;3.72;2.90;;;21.80;67.80;;;;;;5020661;28;20041;-81
2021/09/15 04:33:35;;;;;;;2.85;2.50;;;21.80;67.80;;;;;;5024745;28;20048;-81
2021/09/15 04:36:02;;;;;;;3.63;2.63;;;21.70;67.80;;;;;;5021844;28;20037;-81
2021/09/15 04:38:28;;;;;;;3.65;2.80;;;21.80;67.80;;;;;;5038544;28;20029;-80
2021/09/15 04:40:55;;;;;;;3.33;2.50;;;21.80;67.80;;;;;;5005662;28;20114;-81
2021/09/15 04:43:21;;;;;;;3.45;2.50;;;21.80;67.80;;;;;;5021582;28;20480;-81
2021/09/15 04:45:47;;;;;;;4.65;2.85;;;21.70;67.80;;;;;;5021578;28;20033;-81
2021/09/15 04:48:16;;;;;;;3.78;2.70;;;21.70;67.80;;;;;;5022221;28;20116;-80
2021/09/15 04:50:42;;;;;;;4.00;2.67;;;21.70;67.80;;;;;;5022304;28;20493;-80
2021/09/15 04:53:08;;;;;;;3.40;2.67;;;21.80;67.90;;;;;;5021293;28;20044;-80
2021/09/15 04:55:35;;;;;;;3.00;2.60;;;21.70;67.80;;;;;;5037700;28;20028;-81
2021/09/15 04:58:02;;;;;;;4.10;2.63;;;21.70;67.80;;;;;;5021533;28;20037;-81
2021/09/15 05:00:28;;;;;;;3.47;2.83;;;21.70;67.80;;;;;;5021677;28;20037;-80
2021/09/15 05:03:00;;;;;;;3.83;2.80;;;21.70;67.80;;;;;;5022639;28;20033;-80
2021/09/15 05:05:45;;;;;;;3.70;2.70;;;21.70;67.80;;;;;;5018407;28;20049;-81
2021/09/15 05:08:15;;;;;;;2.90;2.50;;;21.70;67.80;;;;;;5018056;28;20030;-81
2021/09/15 05:10:41;;;;;;;3.72;2.80;;;21.70;67.80;;;;;;5017878;28;20041;-80
2021/09/15 05:13:08;;;;;;;3.58;2.40;;;21.70;67.90;;;;;;5018141;28;20064;-83
2021/09/15 05:15:36;;;;;;;3.90;2.88;;;21.70;67.90;;;;;;5018222;28;20041;-84
2021/09/15 05:18:02;;;;;;;3.30;2.65;;;21.70;67.80;;;;;;5002387;28;20524;-84
2021/09/15 05:20:30;;;;;;;2.97;2.53;;;21.70;67.90;;;;;;5017955;28;20029;-83
2021/09/15 05:22:56;;;;;;;3.22;2.55;;;21.70;67.90;;;;;;5019033;28;20037;-83
2021/09/15 05:25:24;;;;;;;3.17;2.40;;;21.70;67.90;;;;;;5002305;28;20120;-83
2021/09/15 05:27:52;;;;;;;3.85;2.80;;;21.70;67.90;;;;;;5021362;28;20083;-82
2021/09/15 05:30:19;;;;;;;4.00;2.83;;;21.70;67.90;;;;;;5022473;28;20026;-83
2021/09/15 05:32:52;;;;;;;3.10;2.63;;;21.70;67.90;;;;;;5024474;28;20034;-87
2021/09/15 05:35:18;;;;;;;3.58;2.75;;;21.70;67.90;;;;;;5048227;28;20040;-89
2021/09/15 05:37:45;;;;;;;3.45;2.58;;;21.70;67.90;;;;;;5021650;28;20031;-87
2021/09/15 05:40:12;;;;;;;3.03;2.40;;;21.70;67.90;;;;;;5022030;28;20517;-89
2021/09/15 05:42:39;;;;;;;3.70;2.85;;;21.70;67.90;;;;;;5020138;28;20038;-90
2021/09/15 05:45:05;;;;;;;4.20;2.55;;;21.70;67.90;;;;;;5035168;28;20023;-89
2021/09/15 05:47:33;;;;;;;3.80;2.35;;;21.70;67.90;;;;;;5018539;28;20037;-88
2021/09/15 05:50:00;;;;;;;3.30;2.50;;;21.70;67.90;;;;;;5002415;28;20061;-87
2021/09/15 05:52:26;;;;;;;3.17;2.40;;;21.60;67.80;;;;;;5020613;28;20022;-85
2021/09/15 05:54:54;;;;;;;3.03;2.55;;;21.70;67.90;;;;;;5020006;28;20052;-86
2021/09/15 05:57:21;;;;;;;3.80;2.45;;;21.70;67.90;;;;;;5002136;28;20029;-86
2021/09/15 05:59:47;;;;;;;3.80;2.85;;;21.60;67.80;;;;;;5018831;28;20079;-90
2021/09/15 06:02:15;;;;;;;3.20;2.58;;;21.60;67.80;;;;;;5018661;28;20084;-88
2021/09/15 06:04:42;;;;;;;3.47;2.45;;;21.70;67.90;;;;;;5018261;28;20469;-87
2021/09/15 06:07:15;;;;;;;4.05;2.65;;;21.60;67.90;;;;;;5002863;28;20076;-87
2021/09/15 06:09:40;;;;;;;4.05;2.63;;;21.70;68.00;;;;;;5001549;28;20034;-87
2021/09/15 06:12:06;;;;;;;3.67;2.60;;;21.70;67.90;;;;;;5017839;28;20037;-90
2021/09/15 06:14:36;;;;;;;4.25;2.38;;;21.60;67.90;;;;;;5018675;28;20043;-88
2021/09/15 06:17:02;;;;;;;3.42;2.50;;;21.60;67.90;;;;;;5019628;28;20105;-87
2021/09/15 06:19:27;;;;;;;3.35;2.40;;;21.60;67.90;;;;;;5019179;28;20512;-88
2021/09/15 06:22:06;;;;;;;3.95;2.88;;;21.60;67.90;;;;;;5021532;28;20446;-90
2021/09/15 06:24:41;;;;;;;;;;;21.60;67.90;;;;;;5036494;28;20056;-91
2021/09/15 06:27:07;;;;;;;2.97;2.25;;;21.60;67.80;;;;;;5018472;28;19920;-91
2021/09/15 06:29:34;;;;;;;3.28;2.45;;;21.60;67.80;;;;;;5018033;28;20033;-90
2021/09/15 06:32:00;;;;;;;3.58;2.40;;;21.60;67.90;;;;;;5018018;28;20037;-90
2021/09/15 06:34:26;;;;;;;2.63;2.28;;;21.60;68.00;;;;;;5017919;28;20115;-89
2021/09/15 06:36:53;;;;;;;3.22;2.78;;;21.60;68.00;;;;;;5018579;28;20013;-90
2021/09/15 06:39:19;;;;;;;3.63;2.40;;;21.60;68.00;;;;;;5018444;28;20056;-90
2021/09/15 06:41:45;;;;;;;3.05;2.55;;;21.60;68.00;;;;;;5017588;28;20087;-91
2021/09/15 06:44:11;;;;;;;3.33;2.53;;;21.60;68.00;;;;;;5017454;28;20053;-91
2021/09/15 06:46:37;;;;;;;3.40;2.70;;;21.60;68.00;;;;;;5001400;28;20454;-91
2021/09/15 06:49:10;;;;;;;3.38;2.53;;;21.60;68.00;;;;;;5018546;28;20120;-91
2021/09/15 06:51:38;;;;;;;4.00;2.92;;;21.60;68.00;;;;;;5017967;28;20083;-91
2021/09/15 06:54:05;;;;;;;4.18;2.55;;;21.60;68.00;;;;;;5017681;28;20083;-92
2021/09/15 06:56:32;;;;;;;3.10;2.50;;;21.60;68.00;;;;;;5017688;28;20071;-92
2021/09/15 06:59:00;;;;;;;3.22;2.60;;;21.60;68.00;;;;;;5017813;28;20052;-92
2021/09/15 07:01:28;;;;;;;3.28;2.70;;;21.60;68.00;;;;;;5017773;28;20040;-93
2021/09/15 07:04:27;;;;;;;3.03;2.33;;;21.60;68.00;;;;;;5077262;27;1340425;-92
2021/09/15 07:06:53;;;;;;;3.47;2.60;;;21.60;67.90;;;;;;5060212;28;20036;-91
2021/09/15 07:09:21;;;;;;;3.88;2.75;;;21.60;67.90;;;;;;5093203;28;20467;-91
2021/09/15 07:11:47;;;;;;;3.90;2.80;;;21.60;68.00;;;;;;5072892;28;20028;-90
2021/09/15 07:14:13;;;;;;;3.72;2.60;;;21.60;67.90;;;;;;5092779;28;20157;-91
2021/09/15 07:16:41;;;;;;;3.50;2.60;;;21.60;68.00;;;;;;5073482;28;20491;-91
2021/09/15 07:19:10;;;;;;;4.43;3.05;;;21.60;68.00;;;;;;5070914;28;20067;-91
2021/09/15 07:21:38;;;;;;;3.90;2.85;;;21.60;68.00;;;;;;5082319;28;20028;-91
2021/09/15 07:24:09;;;;;;;4.30;3.10;;;21.60;68.00;;;;;;5067553;28;20149;-92
2021/09/15 07:26:35;;;;;;;4.05;2.95;;;21.60;68.00;;;;;;5064553;28;20028;-91
2021/09/15 07:29:02;;;;;;;3.45;2.83;;;21.60;68.00;;;;;;5074836;28;20035;-92
2021/09/15 07:31:28;;;;;;;4.35;3.10;;;21.60;68.00;;;;;;5076699;28;20043;-91
2021/09/15 07:33:53;;;;;;;3.88;2.80;;;21.60;68.00;;;;;;5072840;28;20468;-93
2021/09/15 07:36:19;;;;;;;3.35;2.53;;;21.60;68.00;;;;;;5059038;28;20032;-92
2021/09/15 07:38:45;;;;;;;3.60;2.75;;;21.70;68.00;;;;;;5110965;28;20502;-92
2021/09/15 07:41:11;;;;;;;4.22;2.90;;;21.60;68.00;;;;;;5067962;28;20036;-92
2021/09/15 07:43:37;;;;;;;4.38;3.20;;;21.70;68.00;;;;;;5075881;28;20057;-92
2021/09/15 07:46:04;;;;;;;3.25;2.60;;;21.70;68.00;;;;;;5072975;28;20539;-93
2021/09/15 07:48:36;;;;;;;3.63;2.60;;;21.70;68.00;;;;;;5055573;28;20024;-92
2021/09/15 07:51:05;;;;;;;4.22;2.55;;;21.70;68.10;;;;;;5071871;28;20047;-92
2021/09/15 07:53:33;;;;;;;3.75;2.92;;;21.70;68.00;;;;;;5073076;28;20032;-92
2021/09/15 07:55:59;;;;;;;4.13;2.97;;;21.70;68.00;;;;;;5075881;28;20442;-92
2021/09/15 07:58:25;;;;;;;4.05;3.00;;;21.70;68.00;;;;;;5075527;28;20133;-93
2021/09/15 08:00:51;;;;;;;3.90;3.00;;;21.70;68.00;;;;;;5066735;28;20025;-90
2021/09/15 08:03:20;;;;;;;3.70;2.72;;;21.70;68.00;;;;;;5070690;28;20164;-85
2021/09/15 08:05:46;;;;;;;3.80;2.92;;;21.70;68.10;;;;;;5041981;28;20126;-87
2021/09/15 08:08:12;;;;;;;4.68;3.30;;;21.70;68.10;;;;;;5058572;28;20491;-86
2021/09/15 08:10:40;;;;;;;4.07;2.90;;;21.70;68.10;;;;;;5038406;28;20055;-87
2021/09/15 08:13:05;;;;;;;4.82;3.00;;;21.70;68.10;;;;;;5074631;28;20031;-85
2021/09/15 08:15:31;;;;;;;3.97;2.97;;;21.70;68.10;;;;;;5028880;28;20026;-83
2021/09/15 08:17:57;;;;;;;3.88;3.03;;;21.70;68.10;;;;;;5078400;28;20056;-88
2021/09/15 08:20:23;;;;;;;3.85;3.15;;;21.70;68.10;;;;;;5096192;28;20023;-86
2021/09/15 08:22:50;;;;;;;4.35;2.90;;;21.70;68.10;;;;;;5051945;28;20028;-87
2021/09/15 08:25:19;;;;;;;3.80;2.90;;;21.70;68.10;;;;;;5061055;28;20078;-87
2021/09/15 08:27:46;;;;;;;3.95;2.88;;;21.70;68.20;;;;;;5061736;28;20022;-87
2021/09/15 08:30:12;;;;;;;3.50;2.83;;;21.70;68.10;;;;;;5058221;28;20108;-87
2021/09/15 08:32:38;;;;;;;4.35;3.03;;;21.70;68.10;;;;;;5058337;28;20119;-87
2021/09/15 08:35:05;;;;;;;4.65;3.42;;;21.70;68.10;;;;;;5053472;28;20029;-86
2021/09/15 08:37:36;;;;;;;4.53;3.30;;;21.70;68.10;;;;;;5045008;28;20020;-87
2021/09/15 08:40:07;;;;;;;4.80;3.40;;;21.70;68.30;;;;;;5061465;28;20017;-87
2021/09/15 08:42:33;;;;;;;4.50;3.40;;;21.70;68.20;;;;;;5059593;28;20029;-87
2021/09/15 08:45:01;;;;;;;5.68;3.33;;;21.70;68.20;;;;;;5055903;28;20110;-87
2021/09/15 08:47:28;;;;;;;4.47;3.47;;;21.70;68.20;;;;;;5074530;28;20078;-87
2021/09/15 08:49:55;;;;;;;4.15;3.17;;;21.80;68.30;;;;;;5077931;28;20035;-87
2021/09/15 08:52:21;;;;;;;4.38;3.15;;;21.80;68.30;;;;;;5044517;28;20491;-88
2021/09/15 08:54:46;;;;;;;5.05;3.15;;;21.80;68.30;;;;;;5061104;28;20034;-87
2021/09/15 08:57:12;;;;;;;4.38;3.38;;;21.80;68.20;;;;;;5061488;28;20150;-86
2021/09/15 08:59:38;;;;;;;5.25;3.67;;;21.80;68.20;;;;;;5059108;28;20028;-87
2021/09/15 09:02:13;;;;;;;5.50;3.40;;;21.80;68.20;;;;;;5058250;28;20128;-86
2021/09/15 09:05:02;;;;;;;5.20;3.60;;;21.80;68.20;;;;;;5051355;28;20704;-86
2021/09/15 09:07:33;;;;;;;3.88;3.10;;;21.90;68.40;;;;;;5049263;28;20021;-87
2021/09/15 09:10:01;;;;;;;5.43;3.83;;;21.90;68.20;;;;;;5074549;28;20024;-86
2021/09/15 09:12:31;;;;;;;5.13;3.45;;;21.90;68.20;;;;;;5059004;28;20499;-86
2021/09/15 09:15:23;;;;;;;5.07;3.63;;;21.90;68.20;;;;;;5062345;28;20031;-86
2021/09/15 09:18:00;;;;;;;5.28;3.90;;;21.90;68.40;;;;;;5058309;28;20013;-86
2021/09/15 09:20:31;;;;;;;5.32;4.15;;;21.90;68.20;;;;;;5049632;28;20063;-85
2021/09/15 09:23:30;;;;;;;4.88;3.75;;;22.00;68.30;;;;;;5053648;28;20033;-86
2021/09/15 09:25:57;;;;;;;;;;;22.00;68.40;;;;;;5056234;28;20052;-86
2021/09/15 09:28:36;;;;;;;4.40;3.58;;;22.00;68.10;;;;;;5060703;28;19912;-86
2021/09/15 09:31:10;;;;;;;5.05;4.18;;;22.10;68.20;;;;;;5060219;28;20469;-86
2021/09/15 09:33:45;;;;;;;5.18;3.88;;;22.00;68.30;;;;;;5066728;28;20036;-86
2021/09/15 09:36:11;;;;;;;5.43;4.05;;;22.10;68.30;;;;;;5073201;28;20091;-86
2021/09/15 09:38:49;;;;;;;5.03;4.00;;;22.10;68.40;;;;;;5088417;28;20077;-85
2021/09/15 09:41:20;;;;;;;5.28;3.65;;;22.10;68.50;;;;;;5067824;28;20029;-86
2021/09/15 09:43:52;;;;;;;5.45;4.28;;;22.20;68.40;;;;;;5068029;28;20124;-86
2021/09/15 09:46:35;;;;;;;5.75;4.60;;;22.20;68.40;;;;;;5058664;28;20388;-86
2021/09/15 09:49:09;;;;;;;5.18;4.43;;;22.20;68.40;;;;;;5047751;28;20124;-86
2021/09/15 09:51:39;;;;;;;6.72;5.50;;;22.20;68.30;;;;;;5051832;28;20065;-86
2021/09/15 09:54:20;;;;;;;5.65;4.78;;;22.30;68.40;;;;;;5056196;28;20472;-87
2021/09/15 09:56:49;;;;;;;6.78;4.78;;;22.30;68.40;;;;;;5056351;28;20020;-87
2021/09/15 09:59:17;;;;;;;6.47;4.32;;;22.30;68.30;;;;;;5053278;28;20461;-88
2021/09/15 10:01:53;;;;;;;5.85;4.65;;;22.30;68.30;;;;;;5053878;28;20029;-87
2021/09/15 10:04:20;;;;;;;5.72;4.68;;;22.30;68.20;;;;;;5055762;28;20052;-83
2021/09/15 10:06:47;;;;;;;6.30;5.05;;;22.40;68.20;;;;;;5052279;28;20033;-82
2021/09/15 10:09:13;;;;;;;5.75;4.72;;;22.40;68.10;;;;;;5071055;28;20024;-82
2021/09/15 10:11:41;;;;;;;5.35;4.60;;;22.40;68.10;;;;;;5044956;28;20028;-81
2021/09/15 10:14:10;;;;;;;5.82;4.85;;;22.40;68.10;;;;;;5041619;28;20044;-82
2021/09/15 10:17:01;;;;;;;5.93;4.90;;;22.50;68.10;;;;;;5066006;28;20432;-82
2021/09/15 10:19:31;;;;;;;6.38;4.97;;;22.50;68.10;;;;;;5066360;28;20179;-88
2021/09/15 10:22:02;;;;;;;5.78;5.05;;;22.50;68.00;;;;;;5087721;28;20059;-89
2021/09/15 10:24:58;;;;;;;6.38;5.22;;;22.50;68.00;;;;;;5064419;28;20037;-86
2021/09/15 10:27:28;;;;;;;6.00;5.07;;;22.50;68.10;;;;;;5055462;28;20484;-85
2021/09/15 10:30:13;;;;;;;5.65;4.60;;;22.60;68.00;;;;;;5072918;28;20036;-86
2021/09/15 10:32:46;;;;;;;6.22;4.97;;;22.60;68.10;;;;;;5064802;28;20025;-86
2021/09/15 10:35:12;;;;;;;6.47;5.28;;;22.60;68.00;;;;;;5052609;28;20029;-86
2021/09/15 10:37:41;;;;;;;6.45;5.57;;;22.60;68.00;;;;;;5038368;28;20028;-82
2021/09/15 10:40:11;;;;;;;6.82;5.85;;;22.60;68.00;;;;;;5064129;28;20063;-82
2021/09/15 10:42:39;;;;;;;6.53;5.20;;;22.60;67.90;;;;;;5050894;28;20032;-82
2021/09/15 10:45:14;;;;;;;6.95;5.88;;;22.70;68.00;;;;;;5034574;28;20040;-81
2021/09/15 10:47:42;;;;;;;7.85;6.25;;;22.70;67.90;;;;;;5052815;28;20035;-82
2021/09/15 10:50:12;;;;;;;6.32;5.18;;;22.70;67.90;;;;;;5051245;28;20028;-86
2021/09/15 10:52:43;;;;;;;6.05;5.13;;;22.70;67.80;;;;;;5055638;28;20380;-86
2021/09/15 10:55:24;;;;;;;6.72;5.78;;;22.80;67.90;;;;;;5052306;28;20029;-85
2021/09/15 10:57:50;;;;;;;6.90;6.00;;;22.80;67.90;;;;;;5070433;28;20021;-84
2021/09/15 11:00:16;;;;;;;6.78;5.82;;;22.80;67.80;;;;;;5055145;28;20025;-85
2021/09/15 11:02:48;;;;;;;7.43;6.20;;;22.80;67.80;;;;;;5055353;28;20035;-85
2021/09/15 11:05:26;;;;;;;7.45;6.47;;;22.80;67.80;;;;;;5055186;28;20045;-86
2021/09/15 11:07:57;;;;;;;7.40;6.20;;;22.80;67.80;;;;;;5064728;28;20024;-86
2021/09/15 11:10:34;;;;;;;7.10;6.38;;;22.80;67.70;;;;;;5056583;28;20480;-87
2021/09/15 11:13:14;;;;;;;8.10;6.70;;;22.90;67.90;;;;;;5072155;28;20036;-85
2021/09/15 11:15:46;;;;;;;7.53;6.38;;;22.90;67.90;;;;;;5055028;28;20021;-85
2021/09/15 11:18:27;;;;;;;7.85;6.82;;;22.90;67.80;;;;;;5055010;28;20067;-85
2021/09/15 11:20:54;;;;;;;8.40;7.38;;;22.90;67.80;;;;;;5055088;28;20052;-83
2021/09/15 11:23:20;;;;;;;7.05;6.25;;;22.90;67.70;;;;;;5070744;28;20041;-84
2021/09/15 11:25:50;;;;;;;8.63;6.85;;;22.90;67.70;;;;;;5054286;28;20033;-84
2021/09/15 11:28:18;;;;;;;8.65;6.72;;;23.00;67.80;;;;;;5072667;28;20032;-84
2021/09/15 11:30:52;;;;;;;7.82;6.70;;;23.00;67.80;;;;;;5071466;28;20115;-84
2021/09/15 11:33:25;;;;;;;7.70;6.28;;;23.00;67.80;;;;;;5070837;28;20109;-84
2021/09/15 11:35:59;;;;;;;7.45;6.10;;;23.00;67.80;;;;;;5071487;28;20098;-84
2021/09/15 11:38:30;;;;;;;7.47;6.32;;;23.00;67.80;;;;;;5052436;28;20120;-85
2021/09/15 11:41:25;;;;;;;9.63;7.38;;;23.00;67.70;;;;;;5055453;28;20021;-84
2021/09/15 11:43:52;;;;;;;7.32;6.13;;;23.10;67.80;;;;;;5063809;28;20131;-85
2021/09/15 11:46:19;;;;;;;8.25;6.63;;;23.10;67.60;;;;;;5063187;28;20129;-84
2021/09/15 11:48:45;;;;;;;7.15;6.35;;;23.10;67.70;;;;;;5070120;28;20370;-85
2021/09/15 11:51:14;;;;;;;9.77;7.65;;;23.20;67.70;;;;;;5074876;28;20115;-84
2021/09/15 11:53:41;;;;;;;7.93;6.60;;;23.20;67.70;;;;;;5074444;28;20476;-83
2021/09/15 11:56:06;;;;;;;9.45;7.50;;;23.20;67.70;;;;;;5069727;28;20124;-84
2021/09/15 11:58:33;;;;;;;8.35;7.22;;;23.20;67.70;;;;;;5050068;28;20108;-85
2021/09/15 12:00:58;;;;;;;11.00;8.48;;;23.30;67.70;;;;;;5074327;28;20124;-84
2021/09/15 12:03:28;;;;;;;9.27;7.40;;;23.30;67.70;;;;;;5058880;28;20462;-84
2021/09/15 12:05:57;;;;;;;8.70;7.57;;;23.30;67.70;;;;;;5058702;28;20024;-83
2021/09/15 12:08:23;;;;;;;10.27;8.48;;;23.30;67.70;;;;;;5057315;28;20032;-85
2021/09/15 12:10:53;;;;;;;10.00;8.40;;;23.30;67.70;;;;;;5074329;28;20375;-85
2021/09/15 12:13:19;;;;;;;9.38;8.38;;;23.40;67.80;;;;;;5053462;28;20070;-85
2021/09/15 12:15:49;;;;;;;10.50;9.40;;;23.40;67.70;;;;;;5057693;28;20074;-85
2021/09/15 12:18:21;;;;;;;10.13;8.82;;;23.40;67.80;;;;;;5060060;28;20024;-84
2021/09/15 12:20:49;;;;;;;9.30;7.63;;;23.40;67.70;;;;;;5061018;28;20016;-84
2021/09/15 12:23:17;;;;;;;9.43;8.25;;;23.40;67.70;;;;;;5060869;28;20077;-85
2021/09/15 12:25:53;;;;;;;8.73;7.60;;;23.40;67.70;;;;;;5060345;28;20031;-85
2021/09/15 12:28:23;;;;;;;7.72;6.80;;;23.50;67.80;;;;;;5060754;28;20031;-85
2021/09/15 12:30:49;;;;;;;8.75;7.28;;;23.50;67.70;;;;;;5077516;28;20043;-83
2021/09/15 12:33:23;;;;;;;7.97;7.05;;;23.50;67.70;;;;;;5077377;28;20036;-83
2021/09/15 12:36:14;;;;;;;8.75;6.95;;;23.50;67.70;;;;;;5078106;28;20028;-84
2021/09/15 12:38:57;;;;;;;7.45;6.50;;;23.50;67.70;;;;;;5060333;28;20020;-85
2021/09/15 12:41:29;;;;;;;8.15;6.75;;;23.60;67.70;;;;;;5060372;28;20024;-85
2021/09/15 12:44:09;;;;;;;7.53;6.38;;;23.60;67.60;;;;;;5076822;28;20480;-83
2021/09/15 12:46:35;;;;;;;7.13;5.80;;;23.60;67.70;;;;;;5074405;28;20024;-84
2021/09/15 12:49:00;;;;;;;6.85;5.68;;;23.60;67.50;;;;;;5060711;28;20032;-85
2021/09/15 12:51:28;;;;;;;7.00;5.85;;;23.60;67.50;;;;;;5060391;28;20032;-86
2021/09/15 12:53:56;;;;;;;6.13;5.05;;;23.60;67.50;;;;;;5094755;28;20507;-84
2021/09/15 12:56:23;;;;;;;6.28;5.03;;;23.70;67.50;;;;;;5060513;28;20484;-85
2021/09/15 12:58:52;;;;;;;5.75;4.53;;;23.70;67.50;;;;;;5058214;28;20016;-85
2021/09/15 13:01:21;;;;;;;5.88;4.93;;;23.70;67.40;;;;;;5076450;28;20032;-84
2021/09/15 13:03:51;;;;;;;6.30;4.45;;;23.70;67.40;;;;;;5056049;28;20064;-84
2021/09/15 13:06:18;;;;;;;5.95;4.60;;;23.70;67.30;;;;;;5057488;28;20036;-85
2021/09/15 13:08:53;;;;;;;5.70;4.53;;;23.70;67.30;;;;;;5056501;28;20032;-84
2021/09/15 13:11:20;;;;;;;5.70;4.28;;;23.80;67.30;;;;;;5056374;28;20025;-84
2021/09/15 13:13:45;;;;;;;5.60;4.47;;;23.70;67.20;;;;;;5055771;28;20539;-84